Time;durP1;ratioP1;P1;durP2;ratioP2;P2;SDS_P1;SDS_P2;PMS_P1;PMS_P2;Temp;Humidity;BMP_temperature;BMP_pressure;BME280_temperature;BME280_humidity;BME280_pressure;Samples;Min_cycle;Max_cycle;Signal;HPM_P1;HPM_P2
2022/11/28 00:00:22;;;;;;;10.17;6.77;;;12.60;97.00;;;;;;4976359;28;20219;-95
2022/11/28 00:03:08;;;;;;;10.73;6.43;;;12.60;97.00;;;;;;4982254;28;20226;-95
2022/11/28 00:05:40;;;;;;;13.03;8.30;;;12.60;97.00;;;;;;4985174;28;20238;-94
2022/11/28 00:08:42;;;;;;;8.60;6.73;;;12.60;96.80;;;;;;4995920;28;20219;-95
2022/11/28 00:11:30;;;;;;;8.63;6.70;;;12.60;97.00;;;;;;4995116;28;20206;-96
2022/11/28 00:14:03;;;;;;;10.10;6.37;;;12.60;97.00;;;;;;4988607;28;20278;-95
2022/11/28 00:16:51;;;;;;;8.67;6.73;;;12.60;96.80;;;;;;4990047;28;20203;-95
2022/11/28 00:19:23;;;;;;;6.00;5.40;;;12.60;97.00;;;;;;4976690;28;20222;-94
2022/11/28 00:21:52;;;;;;;11.20;5.93;;;12.60;96.90;;;;;;4965135;28;20200;-95
2022/11/28 00:24:25;;;;;;;6.63;4.97;;;12.60;97.20;;;;;;4979662;28;20203;-96
2022/11/28 00:27:00;;;;;;;9.17;5.47;;;12.60;96.90;;;;;;4986641;28;20207;-95
2022/11/28 00:29:37;;;;;;;7.07;5.30;;;12.60;97.00;;;;;;4984971;28;20231;-95
2022/11/28 00:32:10;;;;;;;7.27;5.07;;;12.60;96.90;;;;;;4978620;28;20215;-95
2022/11/28 00:34:54;;;;;;;6.03;4.33;;;12.60;96.80;;;;;;4982915;28;20213;-95
2022/11/28 00:37:21;;;;;;;7.87;5.47;;;12.60;96.70;;;;;;4980069;28;20313;-93
2022/11/28 00:39:54;;;;;;;8.20;5.37;;;12.60;96.60;;;;;;4968600;28;20192;-94
2022/11/28 00:42:38;;;;;;;6.27;5.00;;;12.60;96.70;;;;;;4977390;28;20197;-95
2022/11/28 00:45:17;;;;;;;8.53;6.00;;;12.60;96.80;;;;;;4978640;28;20299;-94
2022/11/28 00:47:49;;;;;;;6.17;4.93;;;12.60;96.70;;;;;;4994989;28;20256;-95
2022/11/28 00:50:22;;;;;;;7.57;5.20;;;12.60;96.70;;;;;;4994690;28;20188;-95
2022/11/28 00:52:54;;;;;;;6.03;5.07;;;12.60;96.70;;;;;;4990921;28;20214;-94
2022/11/28 00:55:30;;;;;;;6.77;5.23;;;12.50;96.60;;;;;;4966710;28;20203;-94
2022/11/28 00:58:13;;;;;;;10.03;6.07;;;12.50;96.60;;;;;;4966758;28;20232;-94
2022/11/28 01:00:41;;;;;;;9.83;5.53;;;12.50;96.70;;;;;;4966408;28;20207;-94
2022/11/28 01:03:11;;;;;;;10.93;6.17;;;12.60;96.60;;;;;;4965131;28;20199;-95
2022/11/28 01:05:57;;;;;;;9.90;5.73;;;12.50;96.60;;;;;;4969542;28;20230;-95
2022/11/28 01:08:30;;;;;;;9.97;5.73;;;12.60;96.70;;;;;;4983784;28;20287;-95
2022/11/28 01:11:11;;;;;;;6.97;5.67;;;12.60;96.70;;;;;;4981071;28;20958;-94
2022/11/28 01:13:44;;;;;;;7.50;5.50;;;12.60;96.70;;;;;;4984453;28;20208;-94
2022/11/28 01:16:16;;;;;;;6.37;5.60;;;12.60;96.70;;;;;;4987346;28;20202;-93
2022/11/28 01:18:43;;;;;;;11.33;6.43;;;12.60;96.60;;;;;;4976631;28;20214;-95
2022/11/28 01:21:11;;;;;;;8.73;6.20;;;12.60;96.60;;;;;;4975903;28;20203;-94
2022/11/28 01:23:44;;;;;;;9.87;6.93;;;12.60;96.60;;;;;;4965061;28;20215;-95
2022/11/28 01:26:28;;;;;;;9.33;6.43;;;12.60;96.60;;;;;;4969569;28;20301;-95
2022/11/28 01:29:08;;;;;;;9.57;6.73;;;12.60;96.60;;;;;;4962413;28;20227;-95
2022/11/28 01:31:42;;;;;;;7.97;5.87;;;12.60;96.50;;;;;;4959336;28;20208;-95
2022/11/28 01:34:16;;;;;;;9.93;6.97;;;12.60;96.40;;;;;;4958847;28;20196;-94
2022/11/28 01:36:46;;;;;;;11.50;7.47;;;12.60;96.40;;;;;;4972299;28;20268;-93
2022/11/28 01:39:14;;;;;;;11.40;6.97;;;12.60;96.30;;;;;;4977953;28;20913;-95
2022/11/28 01:41:43;;;;;;;11.00;7.73;;;12.60;96.30;;;;;;4981468;28;20196;-95
2022/11/28 01:44:45;;;;;;;11.73;7.30;;;12.60;96.30;;;;;;4990869;28;20202;-93
2022/11/28 01:47:23;;;;;;;11.70;7.73;;;12.50;96.30;;;;;;4970365;28;20840;-95
2022/11/28 01:50:00;;;;;;;10.10;7.43;;;12.60;96.30;;;;;;4960933;29;20239;-95
2022/11/28 01:52:30;;;;;;;11.20;8.33;;;12.50;96.20;;;;;;4964750;28;20195;-95
2022/11/28 01:55:06;;;;;;;11.87;7.97;;;12.50;96.20;;;;;;4964328;28;20215;-95
2022/11/28 01:57:38;;;;;;;13.63;8.47;;;12.50;96.20;;;;;;4975324;28;20615;-95
2022/11/28 02:00:15;;;;;;;10.73;7.90;;;12.50;96.10;;;;;;4968281;28;20271;-94
2022/11/28 02:03:01;;;;;;;10.47;7.97;;;12.50;96.10;;;;;;4978680;28;20242;-94
2022/11/28 02:05:34;;;;;;;12.77;9.10;;;12.50;96.20;;;;;;4980649;28;20215;-95
2022/11/28 02:08:04;;;;;;;12.57;9.10;;;12.40;96.10;;;;;;4979823;28;20342;-96
2022/11/28 02:11:06;;;;;;;14.53;9.83;;;12.40;96.20;;;;;;4980421;28;20226;-96
2022/11/28 02:14:02;;;;;;;11.57;9.43;;;12.50;96.40;;;;;;4982873;28;20230;-95
2022/11/28 02:16:46;;;;;;;12.00;10.03;;;12.40;96.30;;;;;;4992220;28;20199;-94
2022/11/28 02:20:04;;;;;;;19.20;11.77;;;12.50;96.30;;;;;;4987503;28;20202;-94
2022/11/28 02:22:55;;;;;;;10.43;8.70;;;12.40;96.30;;;;;;4977783;28;20207;-94
2022/11/28 02:25:47;;;;;;;12.50;10.13;;;12.40;96.30;;;;;;4997560;28;20209;-94
2022/11/28 02:29:13;;;;;;;11.83;9.97;;;12.40;96.40;;;;;;4996915;28;20226;-95
2022/11/28 02:32:20;;;;;;;13.27;10.23;;;12.40;96.40;;;;;;4991189;28;20196;-95
2022/11/28 02:35:02;;;;;;;15.37;10.10;;;12.40;96.40;;;;;;4995135;28;20211;-95
2022/11/28 02:37:56;;;;;;;13.57;10.33;;;12.40;96.40;;;;;;4995252;28;20202;-95
2022/11/28 02:40:38;;;;;;;12.17;9.33;;;12.40;96.40;;;;;;4994858;28;20234;-95
2022/11/28 02:43:22;;;;;;;15.90;10.10;;;12.40;96.40;;;;;;4995406;28;20867;-95
2022/11/28 02:46:12;;;;;;;16.93;10.83;;;12.40;96.40;;;;;;4986819;28;20211;-94
2022/11/28 02:52:13;;;;;;;15.70;12.27;;;12.40;96.50;;;;;;4972868;28;20269;-94
2022/11/28 02:59:05;;;;;;;13.47;11.53;;;12.40;96.60;;;;;;4980443;28;20246;-95
2022/11/28 03:02:34;;;;;;;18.53;12.73;;;12.40;96.60;;;;;;4996737;28;20187;-95
2022/11/28 03:05:13;;;;;;;17.63;12.37;;;12.40;96.60;;;;;;4988399;28;20279;-94
2022/11/28 03:08:05;;;;;;;16.90;12.43;;;12.40;96.50;;;;;;4981767;28;20207;-95
2022/11/28 03:10:40;;;;;;;14.90;12.20;;;12.40;96.60;;;;;;4982583;28;20219;-95
2022/11/28 03:13:17;;;;;;;17.93;13.13;;;12.50;96.60;;;;;;4983770;28;20207;-95
2022/11/28 03:16:03;;;;;;;19.13;12.17;;;12.40;96.50;;;;;;4992358;28;20238;-95
2022/11/28 03:18:37;;;;;;;20.30;14.17;;;12.40;96.50;;;;;;4994376;28;20202;-95
2022/11/28 03:21:16;;;;;;;17.30;12.43;;;12.40;96.60;;;;;;4992914;28;20202;-95
2022/11/28 03:23:52;;;;;;;18.53;13.27;;;12.40;96.60;;;;;;4992178;28;20202;-95
2022/11/28 03:26:30;;;;;;;20.93;14.03;;;12.40;96.60;;;;;;4993360;28;20215;-95
2022/11/28 03:29:02;;;;;;;18.00;13.83;;;12.40;96.60;;;;;;4988027;28;20765;-95
2022/11/28 03:31:42;;;;;;;20.07;14.30;;;12.40;96.60;;;;;;4972108;28;20236;-95
2022/11/28 03:34:18;;;;;;;19.87;14.00;;;12.50;96.70;;;;;;4972853;28;20210;-94
2022/11/28 03:36:52;;;;;;;18.40;13.70;;;12.50;96.60;;;;;;4972340;28;20236;-94
2022/11/28 03:39:27;;;;;;;21.30;14.33;;;12.50;96.70;;;;;;4991091;28;20269;-94
2022/11/28 03:42:10;;;;;;;20.20;14.93;;;12.50;96.70;;;;;;4992975;28;20224;-95
2022/11/28 03:44:48;;;;;;;19.13;14.10;;;12.50;96.70;;;;;;4991366;28;20253;-94
2022/11/28 03:47:34;;;;;;;20.03;14.97;;;12.50;96.70;;;;;;4992600;28;20210;-95
2022/11/28 03:50:08;;;;;;;19.53;14.77;;;12.50;96.70;;;;;;4987510;28;20227;-93
2022/11/28 03:52:42;;;;;;;23.03;15.23;;;12.60;96.80;;;;;;4978711;28;20196;-95
2022/11/28 03:55:16;;;;;;;23.73;15.93;;;12.50;96.70;;;;;;4964350;29;20257;-93
2022/11/28 03:57:59;;;;;;;22.47;15.87;;;12.60;96.80;;;;;;4962165;28;20203;-94
2022/11/28 04:00:27;;;;;;;24.83;16.90;;;12.60;96.70;;;;;;4965616;28;20653;-94
2022/11/28 04:03:04;;;;;;;22.40;15.70;;;12.60;96.70;;;;;;4977071;28;20254;-94
2022/11/28 04:05:39;;;;;;;21.20;15.20;;;12.60;96.70;;;;;;4958514;28;20223;-95
2022/11/28 04:08:15;;;;;;;25.47;16.23;;;12.60;96.70;;;;;;4974232;28;20211;-94
2022/11/28 04:10:54;;;;;;;26.10;16.63;;;12.60;96.70;;;;;;4976019;28;20235;-95
2022/11/28 04:13:26;;;;;;;24.47;15.47;;;12.60;96.60;;;;;;4975708;28;20209;-95
2022/11/28 04:16:09;;;;;;;21.43;15.17;;;12.60;96.60;;;;;;4994585;28;20298;-95
2022/11/28 04:18:49;;;;;;;21.80;15.00;;;12.70;96.70;;;;;;4991036;28;20208;-94
2022/11/28 04:21:25;;;;;;;24.30;15.30;;;12.60;96.60;;;;;;4975662;28;20236;-94
2022/11/28 04:24:00;;;;;;;23.10;15.20;;;12.60;96.60;;;;;;4976765;28;20202;-95
2022/11/28 04:26:33;;;;;;;19.30;14.50;;;12.60;96.60;;;;;;4992980;28;20207;-95
2022/11/28 04:29:06;;;;;;;27.50;16.47;;;12.60;96.60;;;;;;4980848;28;20286;-94
2022/11/28 04:31:37;;;;;;;17.80;13.70;;;12.60;96.60;;;;;;4983393;28;20946;-95
2022/11/28 04:34:18;;;;;;;21.00;13.83;;;12.60;96.60;;;;;;4991431;28;20291;-94
2022/11/28 04:36:49;;;;;;;22.43;14.47;;;12.60;96.70;;;;;;4980167;28;20251;-94
2022/11/28 04:39:30;;;;;;;21.33;13.97;;;12.70;96.70;;;;;;4991157;28;20209;-95
2022/11/28 04:42:08;;;;;;;16.47;12.17;;;12.70;96.80;;;;;;4989077;28;20198;-95
2022/11/28 04:44:59;;;;;;;20.33;12.83;;;12.70;96.80;;;;;;4980502;28;20203;-94
2022/11/28 04:47:38;;;;;;;15.77;11.87;;;12.60;96.80;;;;;;4985627;28;20302;-95
2022/11/28 04:50:23;;;;;;;14.60;12.67;;;12.70;96.90;;;;;;4970404;28;20239;-95
2022/11/28 04:53:09;;;;;;;18.77;13.70;;;12.70;97.00;;;;;;4969615;28;20269;-94
2022/11/28 04:55:42;;;;;;;19.63;14.00;;;12.70;97.00;;;;;;4977332;28;20553;-95
2022/11/28 04:58:14;;;;;;;21.93;13.60;;;12.70;96.80;;;;;;4977627;28;20601;-95
2022/11/28 05:00:44;;;;;;;21.57;14.93;;;12.70;96.80;;;;;;4971686;28;20222;-95
2022/11/28 05:03:27;;;;;;;19.03;12.83;;;12.60;96.70;;;;;;4964944;28;20672;-95
2022/11/28 05:06:02;;;;;;;19.40;13.00;;;12.70;96.80;;;;;;4972461;28;20233;-96
2022/11/28 05:08:29;;;;;;;18.83;13.13;;;12.70;96.90;;;;;;4972434;28;20198;-95
2022/11/28 05:10:57;;;;;;;19.57;12.97;;;12.70;96.70;;;;;;4969023;28;20233;-95
2022/11/28 05:13:26;;;;;;;17.77;11.30;;;12.70;96.80;;;;;;4963077;28;20203;-95
2022/11/28 05:15:54;;;;;;;14.37;10.53;;;12.70;96.80;;;;;;4978801;28;20215;-96
2022/11/28 05:18:22;;;;;;;18.37;10.63;;;12.70;97.20;;;;;;4981947;28;20203;-95
2022/11/28 05:21:01;;;;;;;12.60;9.37;;;12.70;96.90;;;;;;4979816;28;20942;-95
2022/11/28 05:23:41;;;;;;;13.67;8.83;;;12.70;97.10;;;;;;4974982;28;20212;-96
2022/11/28 05:26:14;;;;;;;12.50;8.93;;;12.70;97.10;;;;;;4979656;28;20238;-95
2022/11/28 05:28:49;;;;;;;12.47;8.13;;;12.70;97.00;;;;;;4962692;28;20620;-95
2022/11/28 05:31:22;;;;;;;14.93;8.93;;;12.70;97.10;;;;;;4966690;28;20246;-95
2022/11/28 05:33:51;;;;;;;8.97;6.83;;;12.80;97.10;;;;;;4979633;28;20211;-96
2022/11/28 05:36:28;;;;;;;14.50;8.33;;;12.80;97.10;;;;;;4981393;28;20239;-94
2022/11/28 05:38:57;;;;;;;13.20;7.97;;;12.80;97.10;;;;;;4991158;28;20200;-96
2022/11/28 05:41:36;;;;;;;12.10;7.47;;;12.80;97.10;;;;;;4980126;28;20211;-95
2022/11/28 05:44:06;;;;;;;8.20;6.93;;;12.80;97.10;;;;;;4977936;28;20684;-95
2022/11/28 05:46:36;;;;;;;10.07;7.40;;;12.80;97.10;;;;;;4979128;28;20204;-95
2022/11/28 05:49:05;;;;;;;13.47;8.13;;;12.80;97.10;;;;;;4963114;28;20733;-95
2022/11/28 05:51:34;;;;;;;11.67;7.33;;;12.80;97.10;;;;;;4978988;28;20213;-95
2022/11/28 05:54:05;;;;;;;7.60;6.43;;;12.80;97.10;;;;;;4992387;28;20206;-95
2022/11/28 05:56:36;;;;;;;10.43;7.40;;;12.80;97.20;;;;;;4990863;28;20277;-96
2022/11/28 05:59:10;;;;;;;9.10;6.30;;;12.80;97.10;;;;;;4991073;28;20201;-96
2022/11/28 06:01:44;;;;;;;8.63;6.57;;;12.90;97.20;;;;;;4983963;28;20207;-96
2022/11/28 06:04:12;;;;;;;8.90;6.60;;;12.90;97.20;;;;;;4985038;28;20246;-96
2022/11/28 06:06:42;;;;;;;12.77;7.53;;;12.90;97.10;;;;;;4977700;28;20695;-95
2022/11/28 06:09:09;;;;;;;11.50;8.03;;;12.90;97.10;;;;;;4974733;28;20212;-95
2022/11/28 06:11:37;;;;;;;11.87;7.70;;;12.90;97.10;;;;;;4961881;28;20231;-94
2022/11/28 06:14:21;;;;;;;10.20;7.70;;;12.90;97.00;;;;;;4971298;28;20207;-95
2022/11/28 06:16:50;;;;;;;10.63;8.17;;;12.90;97.10;;;;;;4966683;28;21021;-96
2022/11/28 06:19:18;;;;;;;13.00;8.80;;;12.90;96.90;;;;;;4975553;28;20223;-95
2022/11/28 06:21:56;;;;;;;15.80;9.30;;;12.90;96.90;;;;;;4969260;28;20227;-96
2022/11/28 06:24:24;;;;;;;13.50;8.63;;;12.90;96.90;;;;;;4979933;28;20214;-95
2022/11/28 06:26:52;;;;;;;13.50;8.60;;;12.90;96.90;;;;;;4965546;28;20578;-93
2022/11/28 06:29:28;;;;;;;13.30;9.27;;;12.90;96.90;;;;;;4978153;28;20211;-96
2022/11/28 06:32:04;;;;;;;12.00;9.30;;;12.90;96.90;;;;;;4978256;28;20203;-95
2022/11/28 06:34:33;;;;;;;21.10;11.70;;;13.00;96.90;;;;;;4977299;28;20226;-95
2022/11/28 06:37:02;;;;;;;15.67;10.33;;;13.00;96.90;;;;;;4976969;28;20209;-95
2022/11/28 06:39:34;;;;;;;17.23;10.67;;;13.00;96.80;;;;;;4975356;28;20213;-95
2022/11/28 06:42:18;;;;;;;20.23;10.73;;;13.00;96.80;;;;;;4977923;28;20291;-96
2022/11/28 06:44:49;;;;;;;19.97;10.50;;;13.00;96.80;;;;;;4989143;28;20207;-96
2022/11/28 06:47:18;;;;;;;12.73;9.57;;;13.00;96.70;;;;;;4989916;28;20208;-96
2022/11/28 06:49:54;;;;;;;14.73;10.10;;;12.90;96.70;;;;;;4970097;28;20231;-95
2022/11/28 06:52:32;;;;;;;13.60;9.63;;;12.90;96.70;;;;;;4979548;28;20195;-96
2022/11/28 06:55:00;;;;;;;19.47;10.27;;;12.90;96.60;;;;;;4978675;28;20231;-95
2022/11/28 06:57:31;;;;;;;17.77;10.23;;;12.90;96.60;;;;;;4978436;28;20210;-95
2022/11/28 07:00:02;;;;;;;15.63;9.27;;;12.90;96.50;;;;;;4970275;28;20211;-95
2022/11/28 07:02:30;;;;;;;12.13;9.03;;;12.90;96.60;;;;;;4977080;28;20216;-95
2022/11/28 07:04:58;;;;;;;14.17;8.83;;;12.90;96.50;;;;;;4971030;28;20328;-96
2022/11/28 07:07:34;;;;;;;17.50;9.53;;;12.90;96.50;;;;;;4961107;28;20221;-96
2022/11/28 07:10:04;;;;;;;13.20;7.93;;;12.90;96.50;;;;;;4976680;28;20231;-95
2022/11/28 07:12:31;;;;;;;12.53;8.43;;;12.90;96.40;;;;;;4977351;28;20207;-96
2022/11/28 07:15:01;;;;;;;11.83;7.73;;;12.90;96.30;;;;;;4975191;28;20222;-93
2022/11/28 07:17:30;;;;;;;14.20;7.90;;;12.90;96.30;;;;;;4975191;28;20218;-94
2022/11/28 07:20:00;;;;;;;12.97;7.53;;;12.80;96.20;;;;;;4965510;28;20214;-95
2022/11/28 07:22:29;;;;;;;11.27;7.40;;;12.90;96.20;;;;;;4961793;28;20239;-95
2022/11/28 07:24:59;;;;;;;11.37;7.40;;;12.90;96.10;;;;;;4967342;28;20209;-95
2022/11/28 07:27:29;;;;;;;13.80;7.60;;;12.90;96.10;;;;;;4975017;28;20199;-95
2022/11/28 07:29:57;;;;;;;12.60;7.13;;;12.80;96.00;;;;;;4972925;28;20223;-95
2022/11/28 07:32:26;;;;;;;14.23;6.97;;;12.80;96.00;;;;;;4971663;28;20211;-93
2022/11/28 07:34:57;;;;;;;13.33;7.23;;;12.80;95.80;;;;;;4971959;28;20257;-94
2022/11/28 07:37:24;;;;;;;13.23;7.13;;;12.80;95.70;;;;;;4971000;28;20223;-94
2022/11/28 07:39:51;;;;;;;15.77;7.70;;;12.80;95.80;;;;;;4958748;28;20208;-94
2022/11/28 07:42:21;;;;;;;13.57;7.67;;;12.70;95.70;;;;;;4959691;28;20235;-94
2022/11/28 07:44:58;;;;;;;13.37;6.90;;;12.70;95.60;;;;;;4966215;28;20556;-94
2022/11/28 07:47:25;;;;;;;13.50;6.77;;;12.70;95.50;;;;;;4978224;28;20210;-94
2022/11/28 07:49:54;;;;;;;12.93;6.87;;;12.70;95.60;;;;;;4975720;28;20228;-94
2022/11/28 07:52:21;;;;;;;14.07;7.13;;;12.70;95.60;;;;;;4973157;28;20204;-94
2022/11/28 07:55:05;;;;;;;17.10;7.40;;;12.60;95.60;;;;;;4972416;28;20305;-93
2022/11/28 07:57:42;;;;;;;13.87;6.97;;;12.70;95.60;;;;;;4973456;28;20220;-94
2022/11/28 08:00:10;;;;;;;9.57;6.03;;;12.60;95.60;;;;;;4972865;28;20218;-94
2022/11/28 08:02:40;;;;;;;11.30;6.03;;;12.60;95.60;;;;;;4975988;28;20234;-94
2022/11/28 08:05:08;;;;;;;10.23;6.17;;;12.60;95.60;;;;;;4975561;28;20285;-93
2022/11/28 08:07:39;;;;;;;16.37;7.03;;;12.60;95.70;;;;;;4962655;28;20242;-95
2022/11/28 08:10:12;;;;;;;14.80;7.17;;;12.60;95.60;;;;;;4974822;28;20261;-93
2022/11/28 08:12:42;;;;;;;14.87;6.57;;;12.60;95.60;;;;;;4982169;28;21135;-94
2022/11/28 08:15:15;;;;;;;10.67;5.70;;;12.50;95.60;;;;;;4967891;28;20215;-93
2022/11/28 08:17:45;;;;;;;22.23;6.47;;;12.50;95.50;;;;;;4966401;28;20216;-93
2022/11/28 08:20:13;;;;;;;12.43;6.27;;;12.50;95.50;;;;;;4974175;28;20869;-94
2022/11/28 08:22:41;;;;;;;15.27;7.20;;;12.50;95.50;;;;;;4973428;28;20290;-93
2022/11/28 08:25:10;;;;;;;17.07;7.07;;;12.50;95.60;;;;;;4972213;28;20213;-93
2022/11/28 08:27:37;;;;;;;16.80;6.20;;;12.50;95.60;;;;;;4971998;28;20989;-93
2022/11/28 08:30:09;;;;;;;14.60;6.37;;;12.40;95.60;;;;;;4974067;28;20802;-93
2022/11/28 08:32:39;;;;;;;13.07;6.03;;;12.50;95.70;;;;;;4972587;28;20226;-93
2022/11/28 08:35:06;;;;;;;19.37;8.13;;;12.50;95.70;;;;;;4984169;28;20230;-93
2022/11/28 08:37:40;;;;;;;11.30;5.17;;;12.40;95.70;;;;;;4987639;28;20194;-93
2022/11/28 08:40:14;;;;;;;17.10;6.77;;;12.40;95.70;;;;;;4992070;28;20210;-94
2022/11/28 08:43:00;;;;;;;14.00;5.87;;;12.40;95.70;;;;;;4992288;28;20198;-93
2022/11/28 08:45:32;;;;;;;13.70;5.37;;;12.40;95.70;;;;;;4994535;28;20217;-94
2022/11/28 08:48:00;;;;;;;16.40;5.93;;;12.40;95.70;;;;;;4982658;28;20202;-93
2022/11/28 08:50:30;;;;;;;17.37;6.37;;;12.40;95.70;;;;;;4972053;28;20227;-94
2022/11/28 08:52:58;;;;;;;19.17;7.93;;;12.40;95.70;;;;;;4971605;28;21017;-93
2022/11/28 08:55:27;;;;;;;20.47;7.20;;;12.40;95.80;;;;;;4972881;28;20210;-93
2022/11/28 08:57:55;;;;;;;20.23;6.40;;;12.40;95.80;;;;;;4973355;28;20215;-93
2022/11/28 09:00:22;;;;;;;23.67;6.87;;;12.40;95.80;;;;;;4992192;28;20230;-93
2022/11/28 09:02:57;;;;;;;14.83;5.53;;;12.40;95.80;;;;;;4995201;28;20186;-94
2022/11/28 09:05:24;;;;;;;12.53;4.97;;;12.40;95.90;;;;;;4979112;28;20641;-93
2022/11/28 09:07:55;;;;;;;10.73;5.10;;;12.40;96.20;;;;;;4977490;28;20208;-93
2022/11/28 09:10:22;;;;;;;18.30;5.67;;;12.40;96.00;;;;;;4976230;28;20293;-93
2022/11/28 09:12:52;;;;;;;11.67;5.40;;;12.40;96.00;;;;;;4976285;28;20242;-93
2022/11/28 09:15:19;;;;;;;18.87;6.80;;;12.40;96.10;;;;;;4975362;28;20207;-93
2022/11/28 09:17:47;;;;;;;17.10;6.20;;;12.40;96.10;;;;;;4975212;28;20230;-94
2022/11/28 09:20:19;;;;;;;13.03;6.07;;;12.40;96.00;;;;;;4976524;28;20218;-93
2022/11/28 09:22:47;;;;;;;14.87;6.33;;;12.40;96.10;;;;;;4975948;28;20687;-94
2022/11/28 09:25:16;;;;;;;17.67;6.33;;;12.40;96.10;;;;;;4976276;28;20211;-94
2022/11/28 09:27:45;;;;;;;15.30;6.60;;;12.40;96.10;;;;;;4977335;28;20210;-92
2022/11/28 09:30:14;;;;;;;13.47;5.93;;;12.40;96.10;;;;;;4971438;28;20207;-94
2022/11/28 09:32:41;;;;;;;14.93;7.47;;;12.40;96.20;;;;;;4976146;28;20633;-93
2022/11/28 09:35:09;;;;;;;19.07;8.80;;;12.40;96.20;;;;;;4974452;28;20250;-94
2022/11/28 09:37:41;;;;;;;20.83;8.63;;;12.40;96.20;;;;;;4975161;28;20206;-93
2022/11/28 09:40:15;;;;;;;21.60;9.40;;;12.40;96.20;;;;;;4974496;28;20242;-93
2022/11/28 09:42:45;;;;;;;16.87;8.53;;;12.40;96.20;;;;;;4975059;28;20202;-93
2022/11/28 09:45:18;;;;;;;18.23;9.27;;;12.40;96.60;;;;;;4973908;28;20934;-95
2022/11/28 09:47:50;;;;;;;14.40;8.03;;;12.50;96.30;;;;;;4966894;28;20263;-94
2022/11/28 09:50:22;;;;;;;19.33;9.30;;;12.50;96.20;;;;;;4973836;28;20234;-94
2022/11/28 09:52:55;;;;;;;18.57;8.90;;;12.50;96.10;;;;;;4971112;28;20286;-94
2022/11/28 09:55:33;;;;;;;20.33;10.20;;;12.50;96.40;;;;;;4964764;28;20225;-93
2022/11/28 09:58:05;;;;;;;16.83;8.77;;;12.50;96.10;;;;;;4978819;28;20577;-93
2022/11/28 10:00:46;;;;;;;22.10;10.07;;;12.50;96.10;;;;;;4979935;28;20233;-93
2022/11/28 10:03:35;;;;;;;15.67;8.53;;;12.40;96.10;;;;;;4982813;28;20195;-94
2022/11/28 10:06:15;;;;;;;16.87;9.07;;;12.40;96.20;;;;;;4981995;28;20211;-94
2022/11/28 10:09:01;;;;;;;16.33;8.30;;;12.40;96.40;;;;;;4978932;28;20713;-93
2022/11/28 10:11:40;;;;;;;19.47;9.33;;;12.40;96.50;;;;;;4981945;28;20228;-94
2022/11/28 10:14:27;;;;;;;22.87;9.40;;;12.40;96.50;;;;;;4980721;28;20195;-94
2022/11/28 10:17:03;;;;;;;15.00;8.10;;;12.40;96.60;;;;;;4978154;28;20210;-93
2022/11/28 10:19:37;;;;;;;16.97;8.87;;;12.40;96.60;;;;;;4981493;28;20290;-94
2022/11/28 10:22:10;;;;;;;18.93;9.87;;;12.40;96.70;;;;;;4981850;28;20212;-93
2022/11/28 10:24:41;;;;;;;24.10;10.93;;;12.40;96.70;;;;;;4975656;28;20340;-93
2022/11/28 10:27:14;;;;;;;19.47;9.60;;;12.50;96.80;;;;;;4974519;28;20261;-93
2022/11/28 10:29:47;;;;;;;19.17;9.50;;;12.50;96.90;;;;;;4973959;28;20235;-94
2022/11/28 10:32:18;;;;;;;22.40;11.13;;;12.50;96.90;;;;;;4972863;28;20325;-93
2022/11/28 10:34:51;;;;;;;23.30;10.30;;;12.50;96.90;;;;;;4973737;28;20251;-94
2022/11/28 10:37:25;;;;;;;23.50;11.93;;;12.50;96.80;;;;;;4972996;28;20227;-94
2022/11/28 10:39:55;;;;;;;23.50;11.37;;;12.50;96.90;;;;;;4973137;28;20257;-92
2022/11/28 10:42:28;;;;;;;21.13;10.50;;;12.50;96.80;;;;;;4973111;28;20215;-93
2022/11/28 10:45:16;;;;;;;26.97;12.57;;;12.60;96.90;;;;;;4973984;28;20698;-93
2022/11/28 10:48:10;;;;;;;25.60;12.97;;;12.60;97.00;;;;;;4974659;28;20318;-93
2022/11/28 10:50:48;;;;;;;26.70;13.27;;;12.60;97.00;;;;;;4974943;28;20207;-95
2022/11/28 10:53:24;;;;;;;24.33;12.43;;;12.60;96.90;;;;;;4962649;28;20212;-93
2022/11/28 10:56:06;;;;;;;22.60;12.47;;;12.60;96.80;;;;;;4963236;28;20208;-94
2022/11/28 10:58:42;;;;;;;23.13;12.80;;;12.60;96.90;;;;;;4964294;28;20882;-93
2022/11/28 11:01:16;;;;;;;21.50;11.87;;;12.60;96.80;;;;;;4966349;28;20200;-95
2022/11/28 11:03:44;;;;;;;23.13;13.20;;;12.60;96.90;;;;;;4965052;28;20282;-94
2022/11/28 11:06:13;;;;;;;24.97;12.97;;;12.60;96.90;;;;;;4969142;28;20212;-93
2022/11/28 11:08:41;;;;;;;26.43;14.40;;;12.60;97.00;;;;;;4970196;28;20227;-93
2022/11/28 11:11:24;;;;;;;24.63;13.67;;;12.60;97.00;;;;;;4987767;28;20223;-94
2022/11/28 11:13:59;;;;;;;31.43;14.00;;;12.70;97.20;;;;;;4989899;28;20178;-94
2022/11/28 11:16:47;;;;;;;25.30;14.77;;;12.70;97.20;;;;;;4996736;28;20223;-94
2022/11/28 11:19:27;;;;;;;24.40;14.57;;;12.70;97.30;;;;;;4986457;28;20216;-94
2022/11/28 11:22:06;;;;;;;29.20;16.20;;;12.70;97.20;;;;;;4978050;28;20206;-94
2022/11/28 11:24:34;;;;;;;24.50;14.83;;;12.70;97.20;;;;;;4964597;28;20205;-94
2022/11/28 11:27:19;;;;;;;26.77;15.27;;;12.80;97.10;;;;;;4972290;28;20218;-94
2022/11/28 11:29:47;;;;;;;29.47;16.23;;;12.80;97.10;;;;;;4982874;28;20669;-94
2022/11/28 11:32:21;;;;;;;25.00;15.60;;;12.80;97.00;;;;;;4972558;28;20235;-95
2022/11/28 11:34:49;;;;;;;29.67;17.07;;;12.80;97.00;;;;;;4973212;28;20228;-93
2022/11/28 11:37:32;;;;;;;24.87;16.23;;;12.80;97.30;;;;;;4973711;28;20610;-93
2022/11/28 11:40:02;;;;;;;29.97;17.20;;;12.90;97.20;;;;;;4954049;28;20230;-93
2022/11/28 11:42:33;;;;;;;25.77;16.23;;;12.90;97.40;;;;;;4954047;28;20215;-94
2022/11/28 11:45:25;;;;;;;30.53;17.43;;;13.00;97.70;;;;;;4960047;28;20260;-94
2022/11/28 11:47:54;;;;;;;25.20;16.07;;;13.00;98.00;;;;;;4954955;28;20950;-93
2022/11/28 11:50:25;;;;;;;31.27;17.03;;;13.10;98.20;;;;;;4955062;28;20216;-94
2022/11/28 11:53:06;;;;;;;28.80;14.57;;;13.20;98.10;;;;;;4953857;28;20237;-93
2022/11/28 11:55:43;;;;;;;24.57;14.87;;;13.30;98.40;;;;;;4953706;28;20246;-93
2022/11/28 11:58:17;;;;;;;27.87;15.83;;;13.30;98.30;;;;;;4954502;28;20717;-94
2022/11/28 12:00:46;;;;;;;25.50;15.70;;;13.40;97.90;;;;;;4957847;28;20211;-93
2022/11/28 12:03:26;;;;;;;25.70;15.13;;;13.50;97.90;;;;;;4973171;28;20908;-94
2022/11/28 12:05:56;;;;;;;23.37;14.23;;;13.70;98.10;;;;;;4972998;28;20311;-93
2022/11/28 12:08:33;;;;;;;23.57;13.57;;;13.70;98.00;;;;;;4974052;28;20247;-93
2022/11/28 12:11:12;;;;;;;20.27;12.53;;;13.90;98.00;;;;;;4968546;28;20205;-93
2022/11/28 12:13:42;;;;;;;24.57;13.17;;;14.00;97.60;;;;;;4954748;28;20214;-93
2022/11/28 12:16:29;;;;;;;22.17;12.23;;;14.10;97.20;;;;;;4960120;28;20199;-93
2022/11/28 12:19:04;;;;;;;21.83;12.80;;;14.20;97.10;;;;;;4967641;28;20708;-93
2022/11/28 12:21:44;;;;;;;20.07;12.07;;;14.20;96.80;;;;;;4972354;28;20301;-91
2022/11/28 12:24:14;;;;;;;25.63;14.00;;;14.30;96.30;;;;;;4971214;28;20208;-92
2022/11/28 12:27:03;;;;;;;21.37;11.47;;;14.40;96.50;;;;;;4971921;28;20262;-92
2022/11/28 12:29:45;;;;;;;22.13;12.53;;;14.40;96.50;;;;;;4968379;28;20205;-94
2022/11/28 12:32:34;;;;;;;20.43;12.80;;;14.50;96.40;;;;;;4972028;28;20233;-93
2022/11/28 12:35:15;;;;;;;31.23;15.57;;;14.50;96.40;;;;;;4980497;28;20224;-93
2022/11/28 12:37:52;;;;;;;28.33;15.03;;;14.60;96.40;;;;;;4979064;28;20211;-93
2022/11/28 12:40:35;;;;;;;28.53;17.17;;;14.60;96.30;;;;;;4962680;28;20241;-92
2022/11/28 12:43:23;;;;;;;30.07;18.17;;;14.60;96.20;;;;;;4950597;28;20618;-93
2022/11/28 12:46:06;;;;;;;28.53;17.63;;;14.60;95.80;;;;;;4952292;28;20696;-93
2022/11/28 12:48:44;;;;;;;26.50;17.80;;;14.70;96.10;;;;;;4967925;28;20221;-93
2022/11/28 12:51:25;;;;;;;28.70;16.87;;;14.70;95.80;;;;;;4972285;28;20256;-93
2022/11/28 12:54:09;;;;;;;27.43;17.00;;;14.70;95.80;;;;;;4970905;28;20288;-93
2022/11/28 12:56:51;;;;;;;35.80;18.20;;;14.70;95.80;;;;;;4970369;28;20206;-94
2022/11/28 12:59:27;;;;;;;27.17;15.30;;;14.70;95.80;;;;;;4971042;28;20221;-93
2022/11/28 13:02:12;;;;;;;32.67;16.90;;;14.70;95.50;;;;;;4971910;28;20225;-93
2022/11/28 13:05:00;;;;;;;24.17;15.87;;;14.70;95.50;;;;;;4967943;28;20211;-92
2022/11/28 13:07:43;;;;;;;26.67;15.47;;;14.70;95.20;;;;;;4966575;28;20208;-94
2022/11/28 13:10:26;;;;;;;28.27;15.47;;;14.70;95.10;;;;;;4981286;28;20213;-92
2022/11/28 13:13:01;;;;;;;26.00;14.50;;;14.70;95.00;;;;;;4983467;28;20241;-94
2022/11/28 13:15:50;;;;;;;19.80;13.30;;;14.70;95.10;;;;;;4982248;28;20206;-93
2022/11/28 13:18:41;;;;;;;22.73;13.47;;;14.60;94.80;;;;;;4983816;28;20208;-94
2022/11/28 13:21:22;;;;;;;17.40;11.93;;;14.60;95.10;;;;;;4984657;28;20218;-94
2022/11/28 13:23:58;;;;;;;20.53;12.13;;;14.60;95.00;;;;;;4984225;28;20204;-93